sensor_id;sensor_type;location;lat;lon;timestamp;temperature;humidity
43227;DHT22;28839;52.404;9.808;2022-09-03T00:04:54;15.50;99.90
43227;DHT22;28839;52.404;9.808;2022-09-03T00:11:54;15.40;99.90
43227;DHT22;28839;52.404;9.808;2022-09-03T00:18:56;15.30;99.90
43227;DHT22;28839;52.404;9.808;2022-09-03T00:25:56;15.30;99.90
43227;DHT22;28839;52.404;9.808;2022-09-03T00:32:55;15.30;99.90
43227;DHT22;28839;52.404;9.808;2022-09-03T00:39:51;15.00;99.90
43227;DHT22;28839;52.404;9.808;2022-09-03T00:46:52;14.90;99.90
43227;DHT22;28839;52.404;9.808;2022-09-03T00:53:52;14.90;99.90
43227;DHT22;28839;52.404;9.808;2022-09-03T01:00:52;14.90;99.90
43227;DHT22;28839;52.404;9.808;2022-09-03T01:07:49;14.80;99.90
43227;DHT22;28839;52.404;9.808;2022-09-03T01:14:58;14.70;99.90
43227;DHT22;28839;52.404;9.808;2022-09-03T01:22:07;14.80;99.90
43227;DHT22;28839;52.404;9.808;2022-09-03T01:29:19;14.80;99.90
43227;DHT22;28839;52.404;9.808;2022-09-03T01:36:22;14.70;99.90
43227;DHT22;28839;52.404;9.808;2022-09-03T01:43:33;14.60;99.90
43227;DHT22;28839;52.404;9.808;2022-09-03T01:50:40;14.70;99.90
43227;DHT22;28839;52.404;9.808;2022-09-03T01:57:53;14.60;99.90
43227;DHT22;28839;52.404;9.808;2022-09-03T02:05:00;14.50;99.90
43227;DHT22;28839;52.404;9.808;2022-09-03T02:12:00;14.60;99.90
43227;DHT22;28839;52.404;9.808;2022-09-03T02:18:57;14.60;99.90
43227;DHT22;28839;52.404;9.808;2022-09-03T02:25:56;14.60;99.90
43227;DHT22;28839;52.404;9.808;2022-09-03T02:32:51;14.50;99.90
43227;DHT22;28839;52.404;9.808;2022-09-03T02:39:45;14.50;99.90
43227;DHT22;28839;52.404;9.808;2022-09-03T02:46:43;14.40;99.90
43227;DHT22;28839;52.404;9.808;2022-09-03T02:53:39;14.40;99.90
43227;DHT22;28839;52.404;9.808;2022-09-03T03:00:33;14.40;99.90
43227;DHT22;28839;52.404;9.808;2022-09-03T03:07:27;14.40;99.90
43227;DHT22;28839;52.404;9.808;2022-09-03T03:14:25;14.40;99.90
43227;DHT22;28839;52.404;9.808;2022-09-03T03:21:19;14.30;99.90
43227;DHT22;28839;52.404;9.808;2022-09-03T03:28:13;14.30;99.90
43227;DHT22;28839;52.404;9.808;2022-09-03T03:35:09;14.30;99.90
43227;DHT22;28839;52.404;9.808;2022-09-03T03:42:03;14.20;99.90
43227;DHT22;28839;52.404;9.808;2022-09-03T03:49:00;14.20;99.90
43227;DHT22;28839;52.404;9.808;2022-09-03T03:55:57;14.20;99.90
43227;DHT22;28839;52.404;9.808;2022-09-03T04:02:51;14.30;99.90
43227;DHT22;28839;52.404;9.808;2022-09-03T04:09:45;14.30;99.90
43227;DHT22;28839;52.404;9.808;2022-09-03T04:16:40;14.00;99.90
43227;DHT22;28839;52.404;9.808;2022-09-03T04:23:36;14.00;99.90
43227;DHT22;28839;52.404;9.808;2022-09-03T04:30:32;13.90;99.90
43227;DHT22;28839;52.404;9.808;2022-09-03T04:37:27;13.90;99.90
43227;DHT22;28839;52.404;9.808;2022-09-03T04:44:21;13.70;99.90
43227;DHT22;28839;52.404;9.808;2022-09-03T04:51:17;13.50;99.90
43227;DHT22;28839;52.404;9.808;2022-09-03T04:58:12;13.40;99.90
43227;DHT22;28839;52.404;9.808;2022-09-03T05:05:07;13.40;99.90
43227;DHT22;28839;52.404;9.808;2022-09-03T05:12:01;13.40;99.90
43227;DHT22;28839;52.404;9.808;2022-09-03T05:18:58;13.40;99.90
43227;DHT22;28839;52.404;9.808;2022-09-03T05:25:56;13.30;99.90
43227;DHT22;28839;52.404;9.808;2022-09-03T05:32:50;13.30;99.90
43227;DHT22;28839;52.404;9.808;2022-09-03T05:39:46;13.30;99.90
43227;DHT22;28839;52.404;9.808;2022-09-03T05:46:39;13.40;99.90
43227;DHT22;28839;52.404;9.808;2022-09-03T05:53:35;13.50;99.90
43227;DHT22;28839;52.404;9.808;2022-09-03T06:00:30;13.70;99.90
43227;DHT22;28839;52.404;9.808;2022-09-03T06:07:24;14.00;99.90
43227;DHT22;28839;52.404;9.808;2022-09-03T06:14:18;14.70;99.90
43227;DHT22;28839;52.404;9.808;2022-09-03T06:21:17;16.70;99.90
43227;DHT22;28839;52.404;9.808;2022-09-03T06:28:11;17.40;99.90
43227;DHT22;28839;52.404;9.808;2022-09-03T06:35:06;17.50;99.90
43227;DHT22;28839;52.404;9.808;2022-09-03T06:42:01;18.00;99.90
43227;DHT22;28839;52.404;9.808;2022-09-03T06:48:56;17.90;99.90
43227;DHT22;28839;52.404;9.808;2022-09-03T06:55:54;18.20;99.90
43227;DHT22;28839;52.404;9.808;2022-09-03T07:02:55;18.10;99.90
43227;DHT22;28839;52.404;9.808;2022-09-03T07:09:51;17.90;99.90
43227;DHT22;28839;52.404;9.808;2022-09-03T07:16:46;18.10;99.90
43227;DHT22;28839;52.404;9.808;2022-09-03T07:23:43;17.90;99.90
43227;DHT22;28839;52.404;9.808;2022-09-03T07:30:37;18.10;99.90
43227;DHT22;28839;52.404;9.808;2022-09-03T07:37:30;18.50;99.90
43227;DHT22;28839;52.404;9.808;2022-09-03T07:44:26;19.00;99.90
43227;DHT22;28839;52.404;9.808;2022-09-03T07:51:23;19.10;99.90
43227;DHT22;28839;52.404;9.808;2022-09-03T07:58:18;19.50;99.90
43227;DHT22;28839;52.404;9.808;2022-09-03T08:05:16;20.00;99.90
43227;DHT22;28839;52.404;9.808;2022-09-03T08:12:12;19.20;99.90
43227;DHT22;28839;52.404;9.808;2022-09-03T08:19:06;19.00;99.90
43227;DHT22;28839;52.404;9.808;2022-09-03T08:26:02;19.00;99.90
43227;DHT22;28839;52.404;9.808;2022-09-03T08:32:55;19.20;99.90
43227;DHT22;28839;52.404;9.808;2022-09-03T08:39:49;19.50;99.90
43227;DHT22;28839;52.404;9.808;2022-09-03T08:46:50;19.60;99.90
43227;DHT22;28839;52.404;9.808;2022-09-03T08:53:47;19.80;99.90
43227;DHT22;28839;52.404;9.808;2022-09-03T09:00:48;19.90;99.90
43227;DHT22;28839;52.404;9.808;2022-09-03T09:07:48;19.90;99.90
43227;DHT22;28839;52.404;9.808;2022-09-03T09:14:51;19.90;99.90
43227;DHT22;28839;52.404;9.808;2022-09-03T09:21:54;20.30;99.90
43227;DHT22;28839;52.404;9.808;2022-09-03T09:28:54;20.20;99.90
43227;DHT22;28839;52.404;9.808;2022-09-03T09:35:50;20.60;99.90
43227;DHT22;28839;52.404;9.808;2022-09-03T09:42:44;20.70;99.90
43227;DHT22;28839;52.404;9.808;2022-09-03T09:49:52;21.00;99.90
43227;DHT22;28839;52.404;9.808;2022-09-03T09:56:57;21.00;99.90
43227;DHT22;28839;52.404;9.808;2022-09-03T10:03:55;21.10;99.90
43227;DHT22;28839;52.404;9.808;2022-09-03T10:10:51;21.10;99.90
43227;DHT22;28839;52.404;9.808;2022-09-03T10:17:54;21.20;98.80
43227;DHT22;28839;52.404;9.808;2022-09-03T10:24:57;21.50;99.50
43227;DHT22;28839;52.404;9.808;2022-09-03T10:32:02;21.40;99.20
43227;DHT22;28839;52.404;9.808;2022-09-03T10:39:04;21.50;98.50
43227;DHT22;28839;52.404;9.808;2022-09-03T10:46:02;22.60;98.70
43227;DHT22;28839;52.404;9.808;2022-09-03T10:53:06;23.00;96.60
43227;DHT22;28839;52.404;9.808;2022-09-03T11:00:05;22.70;96.00
43227;DHT22;28839;52.404;9.808;2022-09-03T11:07:03;23.20;96.20
43227;DHT22;28839;52.404;9.808;2022-09-03T11:14:02;23.20;96.00
43227;DHT22;28839;52.404;9.808;2022-09-03T11:21:03;23.20;96.50
43227;DHT22;28839;52.404;9.808;2022-09-03T11:28:06;23.10;95.30
43227;DHT22;28839;52.404;9.808;2022-09-03T11:35:13;23.30;95.30
43227;DHT22;28839;52.404;9.808;2022-09-03T11:42:10;23.40;96.00
43227;DHT22;28839;52.404;9.808;2022-09-03T11:49:12;23.40;94.30
43227;DHT22;28839;52.404;9.808;2022-09-03T11:56:18;23.40;94.00
43227;DHT22;28839;52.404;9.808;2022-09-03T12:03:13;22.90;94.40
43227;DHT22;28839;52.404;9.808;2022-09-03T12:17:33;23.40;95.50
43227;DHT22;28839;52.404;9.808;2022-09-03T12:24:30;23.30;95.60
43227;DHT22;28839;52.404;9.808;2022-09-03T12:31:28;23.40;93.90
43227;DHT22;28839;52.404;9.808;2022-09-03T12:38:24;23.60;93.50
43227;DHT22;28839;52.404;9.808;2022-09-03T12:45:20;23.60;93.70
43227;DHT22;28839;52.404;9.808;2022-09-03T12:52:18;23.80;93.60
43227;DHT22;28839;52.404;9.808;2022-09-03T12:59:16;23.60;92.90
43227;DHT22;28839;52.404;9.808;2022-09-03T13:06:13;23.50;92.50
43227;DHT22;28839;52.404;9.808;2022-09-03T13:13:18;23.40;92.90
43227;DHT22;28839;52.404;9.808;2022-09-03T13:20:28;23.60;92.50
43227;DHT22;28839;52.404;9.808;2022-09-03T13:27:31;23.50;92.60
43227;DHT22;28839;52.404;9.808;2022-09-03T13:34:31;23.70;93.20
43227;DHT22;28839;52.404;9.808;2022-09-03T13:41:34;23.70;92.00
43227;DHT22;28839;52.404;9.808;2022-09-03T13:48:33;23.50;92.40
43227;DHT22;28839;52.404;9.808;2022-09-03T13:55:47;23.40;92.20
43227;DHT22;28839;52.404;9.808;2022-09-03T14:02:50;23.40;92.20
43227;DHT22;28839;52.404;9.808;2022-09-03T14:09:53;23.50;92.10
43227;DHT22;28839;52.404;9.808;2022-09-03T14:16:52;23.60;92.40
43227;DHT22;28839;52.404;9.808;2022-09-03T14:23:52;23.40;91.80
43227;DHT22;28839;52.404;9.808;2022-09-03T14:30:53;23.60;92.30
43227;DHT22;28839;52.404;9.808;2022-09-03T14:45:53;23.60;91.70
43227;DHT22;28839;52.404;9.808;2022-09-03T14:53:09;23.60;91.90
43227;DHT22;28839;52.404;9.808;2022-09-03T15:00:06;23.70;91.80
43227;DHT22;28839;52.404;9.808;2022-09-03T15:07:17;23.70;91.30
43227;DHT22;28839;52.404;9.808;2022-09-03T15:14:21;23.50;91.10
43227;DHT22;28839;52.404;9.808;2022-09-03T15:21:24;23.50;91.90
43227;DHT22;28839;52.404;9.808;2022-09-03T15:28:32;23.50;91.20
43227;DHT22;28839;52.404;9.808;2022-09-03T15:35:42;23.40;91.20
43227;DHT22;28839;52.404;9.808;2022-09-03T15:42:38;23.50;91.10
43227;DHT22;28839;52.404;9.808;2022-09-03T15:49:47;23.40;91.00
43227;DHT22;28839;52.404;9.808;2022-09-03T15:56:52;23.30;91.20
43227;DHT22;28839;52.404;9.808;2022-09-03T16:03:56;23.30;91.00
43227;DHT22;28839;52.404;9.808;2022-09-03T16:10:58;23.00;90.90
43227;DHT22;28839;52.404;9.808;2022-09-03T16:17:56;22.90;91.30
43227;DHT22;28839;52.404;9.808;2022-09-03T16:24:58;22.80;91.80
43227;DHT22;28839;52.404;9.808;2022-09-03T16:32:10;22.80;91.70
43227;DHT22;28839;52.404;9.808;2022-09-03T16:39:12;22.70;91.80
43227;DHT22;28839;52.404;9.808;2022-09-03T16:46:17;22.50;92.10
43227;DHT22;28839;52.404;9.808;2022-09-03T16:53:23;22.40;92.00
43227;DHT22;28839;52.404;9.808;2022-09-03T17:00:21;22.30;92.50
43227;DHT22;28839;52.404;9.808;2022-09-03T17:07:37;22.20;91.90
43227;DHT22;28839;52.404;9.808;2022-09-03T17:14:58;22.10;92.10
43227;DHT22;28839;52.404;9.808;2022-09-03T17:22:05;21.90;92.50
43227;DHT22;28839;52.404;9.808;2022-09-03T17:29:11;21.70;93.20
43227;DHT22;28839;52.404;9.808;2022-09-03T17:36:10;21.50;92.70
43227;DHT22;28839;52.404;9.808;2022-09-03T17:43:13;21.40;93.20
43227;DHT22;28839;52.404;9.808;2022-09-03T17:50:16;21.20;93.30
43227;DHT22;28839;52.404;9.808;2022-09-03T17:57:16;21.20;93.20
43227;DHT22;28839;52.404;9.808;2022-09-03T18:04:17;20.70;94.10
43227;DHT22;28839;52.404;9.808;2022-09-03T18:11:26;20.60;94.90
43227;DHT22;28839;52.404;9.808;2022-09-03T18:18:26;20.30;95.40
43227;DHT22;28839;52.404;9.808;2022-09-03T18:25:24;20.20;95.80
43227;DHT22;28839;52.404;9.808;2022-09-03T18:32:36;20.30;95.50
43227;DHT22;28839;52.404;9.808;2022-09-03T18:39:49;20.00;96.30
43227;DHT22;28839;52.404;9.808;2022-09-03T18:47:06;19.90;96.70
43227;DHT22;28839;52.404;9.808;2022-09-03T18:54:26;19.90;97.00
43227;DHT22;28839;52.404;9.808;2022-09-03T19:01:43;19.60;97.90
43227;DHT22;28839;52.404;9.808;2022-09-03T19:09:01;19.50;98.20
43227;DHT22;28839;52.404;9.808;2022-09-03T19:16:24;19.40;98.60
43227;DHT22;28839;52.404;9.808;2022-09-03T19:23:41;19.30;99.80
43227;DHT22;28839;52.404;9.808;2022-09-03T19:31:04;19.10;99.90
43227;DHT22;28839;52.404;9.808;2022-09-03T19:38:21;18.90;99.90
43227;DHT22;28839;52.404;9.808;2022-09-03T19:45:41;18.80;99.90
43227;DHT22;28839;52.404;9.808;2022-09-03T19:52:56;18.80;99.90
43227;DHT22;28839;52.404;9.808;2022-09-03T20:00:09;18.60;99.90
43227;DHT22;28839;52.404;9.808;2022-09-03T20:07:22;18.50;99.90
43227;DHT22;28839;52.404;9.808;2022-09-03T20:14:34;18.30;99.90
43227;DHT22;28839;52.404;9.808;2022-09-03T20:21:33;18.10;99.90
43227;DHT22;28839;52.404;9.808;2022-09-03T20:28:43;18.00;99.90
43227;DHT22;28839;52.404;9.808;2022-09-03T20:35:51;17.90;99.90
43227;DHT22;28839;52.404;9.808;2022-09-03T20:43:04;17.80;99.90
43227;DHT22;28839;52.404;9.808;2022-09-03T20:50:09;17.80;99.90
43227;DHT22;28839;52.404;9.808;2022-09-03T20:57:17;17.60;99.90
43227;DHT22;28839;52.404;9.808;2022-09-03T21:04:23;17.50;99.90
43227;DHT22;28839;52.404;9.808;2022-09-03T21:11:27;17.40;99.90
43227;DHT22;28839;52.404;9.808;2022-09-03T21:18:26;17.20;99.90
43227;DHT22;28839;52.404;9.808;2022-09-03T21:25:24;17.20;99.90
43227;DHT22;28839;52.404;9.808;2022-09-03T21:32:24;17.10;99.90
43227;DHT22;28839;52.404;9.808;2022-09-03T21:39:25;16.90;99.90
43227;DHT22;28839;52.404;9.808;2022-09-03T21:46:24;16.80;99.90
43227;DHT22;28839;52.404;9.808;2022-09-03T21:53:26;16.60;99.90
43227;DHT22;28839;52.404;9.808;2022-09-03T22:00:26;16.60;99.90
43227;DHT22;28839;52.404;9.808;2022-09-03T22:07:35;16.40;99.90
43227;DHT22;28839;52.404;9.808;2022-09-03T22:14:36;16.20;99.90
43227;DHT22;28839;52.404;9.808;2022-09-03T22:21:37;16.10;99.90
43227;DHT22;28839;52.404;9.808;2022-09-03T22:28:40;16.00;99.90
43227;DHT22;28839;52.404;9.808;2022-09-03T22:35:58;15.80;99.90
43227;DHT22;28839;52.404;9.808;2022-09-03T22:43:03;15.90;99.90
43227;DHT22;28839;52.404;9.808;2022-09-03T22:50:05;15.80;99.90
43227;DHT22;28839;52.404;9.808;2022-09-03T22:57:04;15.70;99.90
43227;DHT22;28839;52.404;9.808;2022-09-03T23:04:09;15.60;99.90
43227;DHT22;28839;52.404;9.808;2022-09-03T23:11:08;15.60;99.90
43227;DHT22;28839;52.404;9.808;2022-09-03T23:18:08;15.40;99.90
43227;DHT22;28839;52.404;9.808;2022-09-03T23:25:13;15.40;99.90
43227;DHT22;28839;52.404;9.808;2022-09-03T23:32:08;15.30;99.90
43227;DHT22;28839;52.404;9.808;2022-09-03T23:39:09;15.20;99.90
43227;DHT22;28839;52.404;9.808;2022-09-03T23:46:14;15.00;99.90
43227;DHT22;28839;52.404;9.808;2022-09-03T23:53:28;14.80;99.90
